ELLX/LUX METAR and TAF weather

Enter ICAO airport designator
Station Type Date Time Source
ELLX METAR 2024/04/18 06:50 UTC NOAA

ELLX 180650Z 35009KT 9999 FEW010 BKN018 04/02 Q1016 NOSIG


Station Type Date Time Source
ELLX Decoded METAR 2024/04/18 06:50 UTC NOAA

Luxembourg / Luxembourg, Luxembourg (ELLX) 49-37N 006-13E 379M
Apr 18, 2024 - 02:50 AM EDT / 2024.04.18 0650 UTC
Wind: from the N (350 degrees) at 10 MPH (9 KT):0
Visibility: greater than 7 mile(s):0
Sky conditions: mostly cloudy
Temperature: 39 F (4 C)
Dew Point: 35 F (2 C)
Relative Humidity: 86%
Pressure (altimeter): 30.00 in. Hg (1016 hPa)
ob: ELLX 180650Z 35009KT 9999 FEW010 BKN018 04/02 Q1016 NOSIG
cycle: 7

Station Type Date Time Source
ELLX TAF 2024/04/18 18:26 UTC NOAA